Time;durP1;ratioP1;P1;durP2;ratioP2;P2;SDS_P1;SDS_P2;PMS_P1;PMS_P2;Temp;Humidity;BMP_temperature;BMP_pressure;BME280_temperature;BME280_humidity;BME280_pressure;Samples;Min_cycle;Max_cycle;Signal;HPM_P1;HPM_P2
2021/10/23 00:01:20;;;;;;;10.73;1.90;;;;;;;8.01;67.87;100459.69;5055673;28;20052;-87
2021/10/23 00:03:47;;;;;;;8.77;1.88;;;;;;;8.01;68.26;100462.31;5056031;28;20461;-84
2021/10/23 00:06:13;;;;;;;12.65;2.33;;;;;;;8.01;68.09;100458.81;5073602;28;20048;-87
2021/10/23 00:08:40;;;;;;;10.25;1.83;;;;;;;8.02;68.42;100463.16;5073837;28;20071;-83
2021/10/23 00:11:09;;;;;;;11.85;2.15;;;;;;;8.03;68.10;100459.63;5073038;28;20098;-86
2021/10/23 00:13:36;;;;;;;13.38;2.50;;;;;;;8.04;68.30;100470.06;5055795;28;20060;-84
2021/10/23 00:16:03;;;;;;;8.90;2.20;;;;;;;8.06;68.63;100467.38;5073658;28;20048;-84
2021/10/23 00:18:29;;;;;;;9.23;2.05;;;;;;;8.07;68.53;100475.19;5073303;28;20123;-88
2021/10/23 00:20:56;;;;;;;9.55;2.05;;;;;;;8.12;68.52;100475.06;5073189;28;20106;-83
2021/10/23 00:23:23;;;;;;;9.07;1.83;;;;;;;8.13;68.46;100474.13;5073110;28;20044;-85
2021/10/23 00:25:52;;;;;;;7.47;1.92;;;;;;;8.16;68.10;100486.28;5072471;28;20044;-84
2021/10/23 00:28:19;;;;;;;8.98;2.00;;;;;;;8.14;68.09;100478.47;5055494;28;20048;-85
2021/10/23 00:30:45;;;;;;;11.30;2.38;;;;;;;8.15;67.68;100480.16;5073529;28;20077;-84
2021/10/23 00:33:12;;;;;;;8.10;2.05;;;;;;;8.16;67.85;100486.28;5072655;28;20052;-84
2021/10/23 00:35:39;;;;;;;6.30;1.88;;;;;;;8.15;67.89;100490.66;5072872;28;20044;-83
2021/10/23 00:38:05;;;;;;;9.32;2.63;;;;;;;8.15;67.99;100485.41;5072981;28;20499;-84
2021/10/23 00:40:32;;;;;;;11.95;2.05;;;;;;;8.15;68.15;100495.06;5054889;28;20143;-83
2021/10/23 00:42:59;;;;;;;9.85;2.10;;;;;;;8.16;68.62;100497.63;5072236;28;20548;-83
2021/10/23 00:45:26;;;;;;;7.82;1.95;;;;;;;8.18;68.61;100501.03;5073075;28;20109;-83
2021/10/23 00:47:53;;;;;;;8.70;1.80;;;;;;;8.21;68.42;100500.94;5073195;28;20071;-86
2021/10/23 00:50:19;;;;;;;8.80;1.90;;;;;;;8.25;68.57;100500.81;5054860;28;20473;-84
2021/10/23 00:52:47;;;;;;;9.02;2.60;;;;;;;8.26;68.34;100495.53;5072181;28;20461;-85
2021/10/23 00:55:14;;;;;;;11.20;2.50;;;;;;;8.29;68.13;100497.19;5072738;28;20517;-87
2021/10/23 00:57:41;;;;;;;8.30;2.05;;;;;;;8.30;68.26;100499.75;5072549;28;20559;-83
2021/10/23 01:00:09;;;;;;;10.13;2.65;;;;;;;8.32;68.20;100508.44;5072788;28;20057;-83
2021/10/23 01:02:36;;;;;;;14.82;1.83;;;;;;;8.33;68.10;100509.28;5072442;28;20060;-83
2021/10/23 01:05:05;;;;;;;7.97;2.42;;;;;;;8.32;67.91;100505.81;5072326;28;20491;-84
2021/10/23 01:07:33;;;;;;;11.85;1.70;;;;;;;8.31;67.70;100500.63;5054871;28;20461;-83
2021/10/23 01:10:00;;;;;;;8.88;2.13;;;;;;;8.30;67.79;100501.53;5055138;28;20045;-83
2021/10/23 01:12:27;;;;;;;7.35;2.60;;;;;;;8.29;67.67;100502.41;5071821;28;20075;-84
2021/10/23 01:14:54;;;;;;;12.75;1.80;;;;;;;8.27;67.68;100504.25;5054900;28;20400;-84
2021/10/23 01:17:22;;;;;;;11.45;3.30;;;;;;;8.24;67.73;100504.34;5072438;28;20537;-84
2021/10/23 01:19:51;;;;;;;10.32;2.30;;;;;;;8.23;67.75;100510.53;5054498;28;20465;-84
2021/10/23 01:22:28;;;;;;;9.05;1.98;;;;;;;8.18;67.57;100513.28;5071658;28;20517;-84
2021/10/23 01:24:56;;;;;;;10.52;2.00;;;;;;;8.19;67.73;100507.16;5072186;28;20049;-83
2021/10/23 01:27:23;;;;;;;7.75;2.38;;;;;;;8.19;68.15;100509.78;5054796;28;20049;-84
2021/10/23 01:29:50;;;;;;;11.30;2.95;;;;;;;8.18;67.91;100516.78;5053950;28;20101;-84
2021/10/23 01:32:16;;;;;;;12.38;1.73;;;;;;;8.19;68.22;100512.41;5071221;28;20082;-83
2021/10/23 01:34:43;;;;;;;9.82;2.15;;;;;;;8.20;68.42;100519.34;5072373;28;20056;-84
2021/10/23 01:37:10;;;;;;;15.80;1.88;;;;;;;8.21;68.55;100514.06;5072319;28;20063;-84
2021/10/23 01:39:36;;;;;;;8.77;2.20;;;;;;;8.24;68.33;100518.34;5072588;28;20079;-84
2021/10/23 01:42:03;;;;;;;10.32;2.33;;;;;;;8.27;68.59;100517.38;5053517;28;20060;-82
2021/10/23 01:44:34;;;;;;;9.05;2.53;;;;;;;8.29;68.55;100518.16;5072220;28;20118;-84
2021/10/23 01:47:06;;;;;;;7.93;1.70;;;;;;;8.32;68.63;100520.69;5053976;28;20169;-83
2021/10/23 01:49:32;;;;;;;7.43;1.83;;;;;;;8.37;68.28;100531.03;5054372;28;20498;-83
2021/10/23 01:51:59;;;;;;;10.45;2.00;;;;;;;8.40;68.40;100529.16;5071285;28;20052;-83
2021/10/23 01:54:25;;;;;;;11.73;2.22;;;;;;;8.43;68.64;100529.03;5072227;28;20053;-83
2021/10/23 01:56:52;;;;;;;9.40;2.30;;;;;;;8.46;68.50;100536.78;5072229;28;20052;-83
2021/10/23 01:59:19;;;;;;;12.40;1.98;;;;;;;8.49;68.44;100546.34;5071716;28;20090;-84
2021/10/23 02:01:46;;;;;;;9.93;2.38;;;;;;;8.53;68.40;100549.72;5071530;28;20055;-83
2021/10/23 02:04:12;;;;;;;11.15;1.77;;;;;;;8.55;68.27;100547.91;5071861;28;20131;-84
2021/10/23 02:06:39;;;;;;;8.90;1.92;;;;;;;8.57;68.39;100548.72;5071988;28;20114;-84
2021/10/23 02:09:06;;;;;;;11.55;2.78;;;;;;;8.59;68.33;100536.38;5072119;28;20414;-84
2021/10/23 02:11:32;;;;;;;14.13;2.33;;;;;;;8.60;68.25;100544.19;5053267;28;20736;-84
2021/10/23 02:13:59;;;;;;;8.50;1.90;;;;;;;8.62;68.26;100556.41;5071772;28;20052;-83
2021/10/23 02:16:25;;;;;;;13.02;2.45;;;;;;;8.63;68.01;100558.13;5071876;28;20048;-84
2021/10/23 02:18:52;;;;;;;9.43;2.35;;;;;;;8.64;68.26;100560.72;5071779;28;20064;-84
2021/10/23 02:21:19;;;;;;;14.35;2.75;;;;;;;8.66;68.29;100560.63;5053513;28;20105;-83
2021/10/23 02:23:45;;;;;;;10.73;2.25;;;;;;;8.66;68.12;100561.50;5071699;28;20130;-84
2021/10/23 02:26:12;;;;;;;6.80;1.80;;;;;;;8.68;68.22;100553.56;5071164;28;20075;-84
2021/10/23 02:28:39;;;;;;;10.30;2.20;;;;;;;8.69;68.11;100550.03;5070663;28;20114;-82
2021/10/23 02:31:05;;;;;;;9.00;1.60;;;;;;;8.69;68.04;100556.16;5070652;28;20048;-83
2021/10/23 02:33:32;;;;;;;14.65;2.47;;;;;;;8.70;68.23;100555.22;5071190;28;20083;-84
2021/10/23 02:35:59;;;;;;;9.18;2.63;;;;;;;8.70;68.19;100557.84;5071787;28;20441;-83
2021/10/23 02:38:26;;;;;;;7.07;2.00;;;;;;;8.70;67.78;100563.09;5071402;28;20129;-83
2021/10/23 02:40:52;;;;;;;7.57;1.90;;;;;;;8.70;68.17;100573.59;5071731;28;20084;-83
2021/10/23 02:43:19;;;;;;;11.80;2.65;;;;;;;8.71;68.16;100574.47;5056555;28;20082;-83
2021/10/23 02:45:45;;;;;;;6.65;1.50;;;;;;;8.70;68.10;100576.22;5075263;28;20105;-83
2021/10/23 02:48:12;;;;;;;7.15;2.17;;;;;;;8.71;68.00;100577.09;5075025;28;20781;-83
2021/10/23 02:50:39;;;;;;;15.93;2.50;;;;;;;8.71;67.91;100582.34;5057375;28;20467;-83
2021/10/23 02:53:05;;;;;;;9.02;2.03;;;;;;;8.71;68.01;100580.56;5073936;28;20437;-84
2021/10/23 02:55:32;;;;;;;10.30;2.50;;;;;;;8.70;67.91;100578.84;5055803;28;20052;-83
2021/10/23 02:57:59;;;;;;;6.88;1.55;;;;;;;8.71;67.99;100582.34;5056344;28;20052;-83
2021/10/23 03:00:26;;;;;;;7.65;2.35;;;;;;;8.73;67.92;100580.50;5055901;28;20098;-83
2021/10/23 03:02:52;;;;;;;9.43;1.92;;;;;;;8.73;68.24;100570.88;5073267;28;20059;-84
2021/10/23 03:05:19;;;;;;;9.30;2.08;;;;;;;8.75;68.20;100567.34;5075037;28;20053;-83
2021/10/23 03:07:46;;;;;;;8.00;2.58;;;;;;;8.77;67.90;100571.63;5074502;28;20044;-84
2021/10/23 03:10:14;;;;;;;8.48;1.88;;;;;;;8.78;67.83;100567.22;5056839;28;20044;-85
2021/10/23 03:12:40;;;;;;;6.45;1.83;;;;;;;8.79;67.81;100566.31;5056368;28;20048;-84
2021/10/23 03:15:08;;;;;;;7.03;2.13;;;;;;;8.79;67.87;100553.19;5074951;28;20092;-84
2021/10/23 03:17:35;;;;;;;8.52;2.13;;;;;;;8.80;68.21;100566.25;5074534;28;20052;-83
2021/10/23 03:20:02;;;;;;;6.65;2.03;;;;;;;8.80;67.92;100568.00;5074830;28;20052;-83
2021/10/23 03:22:29;;;;;;;9.60;2.53;;;;;;;8.81;67.97;100567.09;5073946;28;20118;-83
2021/10/23 03:24:56;;;;;;;10.32;2.55;;;;;;;8.80;67.72;100563.63;5074310;28;20556;-83
2021/10/23 03:27:23;;;;;;;11.02;2.20;;;;;;;8.81;67.86;100567.09;5074487;28;20048;-84
2021/10/23 03:29:50;;;;;;;6.13;1.90;;;;;;;8.82;67.84;100568.84;5074847;28;20053;-84
2021/10/23 03:32:17;;;;;;;7.95;2.05;;;;;;;8.82;67.81;100567.03;5055594;28;20084;-84
2021/10/23 03:34:44;;;;;;;7.75;1.90;;;;;;;8.83;67.86;100565.28;5073922;28;20120;-84
2021/10/23 03:37:11;;;;;;;6.10;2.10;;;;;;;8.84;67.77;100567.00;5074491;28;20099;-84
2021/10/23 03:39:42;;;;;;;6.45;1.67;;;;;;;8.82;67.36;100568.84;5074076;28;20488;-84
2021/10/23 03:42:08;;;;;;;7.65;2.17;;;;;;;8.82;67.49;100566.22;5073737;28;20102;-84
2021/10/23 03:44:35;;;;;;;6.70;1.65;;;;;;;8.82;67.51;100576.72;5074551;28;20044;-83
2021/10/23 03:47:01;;;;;;;11.95;2.95;;;;;;;8.80;67.38;100571.50;5056567;28;20075;-83
2021/10/23 03:49:28;;;;;;;9.73;2.40;;;;;;;8.79;67.50;100580.28;5075732;28;20052;-83
2021/10/23 03:51:55;;;;;;;7.68;2.22;;;;;;;8.78;67.56;100588.22;5073213;28;20090;-83
2021/10/23 03:54:22;;;;;;;6.78;1.80;;;;;;;8.77;67.65;100581.25;5073642;28;20064;-84
2021/10/23 03:56:49;;;;;;;7.85;2.03;;;;;;;8.76;68.05;100575.16;5056153;28;20098;-84
2021/10/23 03:59:15;;;;;;;10.00;2.25;;;;;;;8.78;68.10;100598.72;5073917;28;20056;-83
2021/10/23 04:01:42;;;;;;;9.00;2.10;;;;;;;8.79;68.14;100595.19;5073292;28;20463;-83
2021/10/23 04:04:08;;;;;;;12.90;2.97;;;;;;;8.79;68.16;100596.03;5073922;28;20048;-84
2021/10/23 04:06:35;;;;;;;12.02;2.50;;;;;;;8.81;68.10;100596.84;5074055;28;20041;-83
2021/10/23 04:09:03;;;;;;;10.15;2.50;;;;;;;8.82;67.91;100608.22;5073671;28;20052;-83
2021/10/23 04:11:30;;;;;;;5.18;2.03;;;;;;;8.84;67.91;100596.75;5073321;28;20411;-83
2021/10/23 04:13:57;;;;;;;10.43;2.20;;;;;;;8.86;67.78;100591.44;5073615;28;20094;-84
2021/10/23 04:16:23;;;;;;;8.75;1.77;;;;;;;8.87;67.91;100593.16;5073797;28;20430;-84
2021/10/23 04:18:50;;;;;;;9.95;2.75;;;;;;;8.88;67.54;100592.22;5073460;28;20391;-83
2021/10/23 04:21:17;;;;;;;8.80;2.15;;;;;;;8.89;67.78;100585.22;5055581;28;20053;-83
2021/10/23 04:23:43;;;;;;;11.90;2.05;;;;;;;8.88;67.54;100600.09;5055614;28;20053;-84
2021/10/23 04:26:10;;;;;;;8.40;1.92;;;;;;;8.88;67.39;100601.84;5073217;28;20052;-83
2021/10/23 04:28:36;;;;;;;9.43;2.45;;;;;;;8.86;67.22;100613.28;5073253;28;20045;-84
2021/10/23 04:31:03;;;;;;;9.25;2.17;;;;;;;8.85;67.14;100626.47;5054941;28;20499;-83
2021/10/23 04:33:30;;;;;;;9.45;2.15;;;;;;;8.83;67.59;100623.03;5072887;28;20087;-84
2021/10/23 04:35:56;;;;;;;9.98;2.22;;;;;;;8.81;67.21;100623.09;5073060;28;20388;-84
2021/10/23 04:38:24;;;;;;;12.18;2.38;;;;;;;8.80;67.50;100631.03;5073168;28;20118;-83
2021/10/23 04:40:51;;;;;;;10.60;2.70;;;;;;;8.80;67.65;100628.41;5055181;28;20087;-83
2021/10/23 04:43:17;;;;;;;10.35;2.58;;;;;;;8.79;67.81;100622.28;5072420;28;20053;-84
2021/10/23 04:45:44;;;;;;;12.20;2.47;;;;;;;8.80;67.68;100628.41;5072998;28;20105;-83
2021/10/23 04:48:11;;;;;;;11.02;2.58;;;;;;;8.79;67.42;100627.53;5072465;28;20044;-84
2021/10/23 04:50:37;;;;;;;11.98;2.85;;;;;;;8.79;67.28;100626.69;5054987;28;20138;-84
2021/10/23 04:53:04;;;;;;;11.50;3.03;;;;;;;8.78;67.43;100617.94;5072721;28;20049;-84
2021/10/23 04:55:30;;;;;;;8.00;2.50;;;;;;;8.76;67.22;100626.78;5064712;28;20060;-83
2021/10/23 04:57:57;;;;;;;8.68;2.65;;;;;;;8.73;67.00;100623.38;5072430;28;20094;-83
2021/10/23 05:00:25;;;;;;;9.32;2.35;;;;;;;8.72;67.31;100626.06;5054883;28;20131;-84
2021/10/23 05:02:52;;;;;;;12.63;2.60;;;;;;;8.70;67.20;100618.22;5072182;28;20049;-83
2021/10/23 05:05:20;;;;;;;9.07;2.80;;;;;;;8.68;67.40;100614.78;5054243;28;20048;-84
2021/10/23 05:07:47;;;;;;;7.28;2.65;;;;;;;8.67;67.25;100623.56;5072504;28;20041;-83
2021/10/23 05:10:14;;;;;;;10.25;3.05;;;;;;;8.65;67.33;100617.53;5072753;28;20071;-84
2021/10/23 05:12:40;;;;;;;9.10;2.22;;;;;;;8.64;67.23;100621.06;5072054;28;20859;-83
2021/10/23 05:15:07;;;;;;;9.18;2.25;;;;;;;8.62;67.40;100622.88;5072581;28;20044;-84
2021/10/23 05:17:34;;;;;;;12.77;3.17;;;;;;;8.61;67.42;100631.66;5054578;28;20044;-83
2021/10/23 05:20:00;;;;;;;12.45;2.88;;;;;;;8.60;67.39;100619.47;5072110;28;20060;-83
2021/10/23 05:22:27;;;;;;;10.65;2.40;;;;;;;8.59;67.66;100615.09;5054309;28;20056;-84
2021/10/23 05:24:54;;;;;;;10.90;2.53;;;;;;;8.58;67.32;100623.91;5072238;28;20052;-84
2021/10/23 05:27:20;;;;;;;10.15;2.80;;;;;;;8.59;67.40;100630.84;5072370;28;20052;-83
2021/10/23 05:29:47;;;;;;;8.18;2.63;;;;;;;8.57;67.50;100624.81;5072498;28;20048;-84
2021/10/23 05:32:13;;;;;;;9.98;2.47;;;;;;;8.56;67.31;100617.88;5053725;28;20510;-83
2021/10/23 05:34:40;;;;;;;11.43;3.45;;;;;;;8.55;67.64;100621.38;5072183;28;20548;-84
2021/10/23 05:37:06;;;;;;;10.43;2.20;;;;;;;8.55;67.53;100631.88;5072265;28;20045;-83
2021/10/23 05:39:33;;;;;;;7.47;2.40;;;;;;;8.53;67.64;100631.94;5054536;28;20494;-83
2021/10/23 05:41:59;;;;;;;13.60;2.97;;;;;;;8.53;67.32;100638.94;5071247;28;20056;-83
2021/10/23 05:44:26;;;;;;;9.30;2.55;;;;;;;8.51;67.56;100632.84;5072246;28;20121;-84
2021/10/23 05:46:53;;;;;;;13.02;3.30;;;;;;;8.51;67.60;100641.59;5072068;28;20130;-84
2021/10/23 05:49:19;;;;;;;6.45;2.97;;;;;;;8.50;67.36;100639.88;5072224;28;20055;-83
2021/10/23 05:51:46;;;;;;;10.60;2.60;;;;;;;8.48;67.40;100639.06;5054041;28;20049;-84
2021/10/23 05:54:13;;;;;;;13.13;2.65;;;;;;;8.47;67.50;100640.84;5072099;28;20057;-83
2021/10/23 05:56:40;;;;;;;14.40;2.95;;;;;;;8.47;67.69;100653.97;5072075;28;20053;-84
2021/10/23 05:59:14;;;;;;;15.75;3.08;;;;;;;8.46;67.37;100661.88;5073006;28;20052;-85
2021/10/23 06:01:46;;;;;;;10.73;2.58;;;;;;;8.45;67.67;100666.25;5071883;28;20056;-83
2021/10/23 06:04:16;;;;;;;10.52;2.75;;;;;;;8.46;67.56;100662.72;5072406;28;20135;-84
2021/10/23 06:06:45;;;;;;;7.20;2.80;;;;;;;8.46;67.75;100673.22;5072083;28;20083;-84
2021/10/23 06:09:12;;;;;;;9.90;2.80;;;;;;;8.46;67.64;100670.59;5071849;28;20061;-85
2021/10/23 06:38:56;;;;;;;7.63;3.72;;;;;;;8.62;67.92;100719.13;5154254;22;20141;-84
2021/10/23 06:41:23;;;;;;;12.15;4.03;;;;;;;8.64;68.12;100728.69;5077307;28;20070;-84
2021/10/23 06:43:49;;;;;;;13.35;4.25;;;;;;;8.65;68.23;100725.16;5076972;28;20509;-85
2021/10/23 06:46:16;;;;;;;12.75;3.97;;;;;;;8.67;68.18;100719.84;5076954;28;20059;-84
2021/10/23 06:48:43;;;;;;;15.15;4.18;;;;;;;8.70;68.15;100722.34;5094707;28;20131;-84
2021/10/23 06:51:09;;;;;;;12.70;4.57;;;;;;;8.71;68.38;100722.31;5093535;28;20043;-84
2021/10/23 06:53:41;;;;;;;13.98;4.00;;;;;;;8.75;68.22;100725.72;5115606;28;20465;-84
2021/10/23 06:56:08;;;;;;;11.30;4.35;;;;;;;8.78;68.26;100735.25;5097277;28;20052;-83
2021/10/23 06:58:34;;;;;;;12.65;4.55;;;;;;;8.81;68.33;100735.13;5114947;28;20138;-84
2021/10/23 07:01:04;;;;;;;11.02;4.13;;;;;;;8.84;68.41;100735.03;5115208;28;20051;-84
2021/10/23 07:03:31;;;;;;;12.77;4.45;;;;;;;8.86;67.95;100731.44;5115351;28;20145;-85
2021/10/23 07:05:58;;;;;;;12.90;5.00;;;;;;;8.91;68.08;100743.53;5097879;28;20051;-84
2021/10/23 07:08:24;;;;;;;9.32;4.13;;;;;;;8.93;67.98;100744.38;5116063;28;20047;-87
2021/10/23 07:10:51;;;;;;;12.88;4.38;;;;;;;8.95;68.03;100750.41;5117089;28;20048;-84
2021/10/23 07:13:18;;;;;;;12.65;4.90;;;;;;;8.95;67.62;100748.66;5097398;28;20052;-84
2021/10/23 07:15:44;;;;;;;11.30;4.68;;;;;;;8.98;68.05;100752.94;5115443;28;20055;-86
2021/10/23 07:18:11;;;;;;;8.55;4.18;;;;;;;9.01;68.16;100762.47;5096835;28;20043;-84
2021/10/23 07:20:38;;;;;;;17.25;4.35;;;;;;;9.02;68.13;100766.81;5115291;28;20497;-84
2021/10/23 07:23:05;;;;;;;11.75;4.47;;;;;;;9.05;67.98;100772.81;5115236;28;20079;-85
2021/10/23 07:25:32;;;;;;;14.80;4.35;;;;;;;9.08;68.33;100774.50;5097218;28;20093;-84
2021/10/23 07:27:58;;;;;;;15.20;4.53;;;;;;;9.12;68.34;100781.34;5096395;28;20062;-84
2021/10/23 07:30:25;;;;;;;11.85;4.53;;;;;;;9.17;68.09;100789.94;5096869;28;20443;-84
2021/10/23 07:32:52;;;;;;;9.65;4.50;;;;;;;9.22;68.04;100793.25;5115140;28;20048;-84
2021/10/23 07:35:18;;;;;;;11.38;4.43;;;;;;;9.28;68.28;100800.06;5096722;28;20501;-84
2021/10/23 07:37:45;;;;;;;7.82;3.53;;;;;;;9.33;68.41;100803.41;5115121;28;20427;-84
2021/10/23 07:40:13;;;;;;;9.52;4.30;;;;;;;9.38;68.09;100817.22;5114048;28;20052;-84
2021/10/23 07:42:41;;;;;;;8.10;4.32;;;;;;;9.43;68.04;100817.06;5096262;28;20058;-84
2021/10/23 07:45:10;;;;;;;17.88;4.10;;;;;;;9.48;67.84;100819.53;5114340;28;20489;-84
2021/10/23 07:47:38;;;;;;;10.30;4.88;;;;;;;9.51;67.66;100830.81;5096591;28;20047;-83
2021/10/23 07:50:06;;;;;;;13.77;4.30;;;;;;;9.54;67.67;100834.22;5114281;28;20558;-84
2021/10/23 07:52:34;;;;;;;14.65;4.75;;;;;;;9.57;67.61;100828.88;5096526;28;20063;-84
2021/10/23 07:55:03;;;;;;;11.35;4.50;;;;;;;9.58;67.70;100847.22;5114781;28;20051;-84
2021/10/23 07:57:29;;;;;;;10.27;4.57;;;;;;;9.62;67.88;100832.19;5114009;28;20138;-84
2021/10/23 07:59:56;;;;;;;11.50;4.43;;;;;;;9.64;67.84;100839.09;5114032;28;20058;-84
2021/10/23 08:02:23;;;;;;;10.93;4.68;;;;;;;9.68;67.67;100833.75;5114313;28;20063;-84
2021/10/23 08:04:50;;;;;;;13.10;4.85;;;;;;;9.71;67.77;100829.22;5114229;28;20100;-83
2021/10/23 08:07:17;;;;;;;13.35;5.03;;;;;;;9.75;67.66;100843.97;5095935;28;20048;-84
2021/10/23 08:09:43;;;;;;;8.00;4.47;;;;;;;9.80;67.52;100837.69;5113967;28;20052;-84
2021/10/23 08:12:10;;;;;;;12.70;4.78;;;;;;;9.85;67.71;100848.91;5095734;28;20092;-84
2021/10/23 08:14:37;;;;;;;8.43;4.60;;;;;;;9.89;67.39;100851.38;5095966;28;20051;-84
2021/10/23 08:17:04;;;;;;;13.68;4.32;;;;;;;9.94;67.46;100851.19;5095592;28;20438;-84
2021/10/23 08:19:32;;;;;;;12.32;5.05;;;;;;;9.98;67.03;100855.41;5095010;28;20047;-84
2021/10/23 08:21:59;;;;;;;13.45;4.93;;;;;;;10.03;67.23;100858.72;5095954;28;20054;-84
2021/10/23 08:24:26;;;;;;;7.68;4.25;;;;;;;10.06;66.85;100856.91;5113579;28;20055;-85
2021/10/23 08:26:53;;;;;;;11.75;4.68;;;;;;;10.09;66.66;100860.28;5095778;28;20050;-84
2021/10/23 08:29:19;;;;;;;10.25;4.40;;;;;;;10.10;66.62;100862.00;5113257;28;20054;-84
2021/10/23 08:31:46;;;;;;;8.50;4.22;;;;;;;10.12;66.83;100864.56;5113625;28;20078;-85
2021/10/23 08:34:14;;;;;;;10.30;5.18;;;;;;;10.14;66.91;100875.91;5095323;28;20047;-84
2021/10/23 08:36:40;;;;;;;13.07;4.93;;;;;;;10.18;67.33;100872.25;5113408;28;20108;-85
2021/10/23 08:39:07;;;;;;;10.52;4.63;;;;;;;10.23;67.62;100878.19;5112655;28;20050;-84
2021/10/23 08:41:34;;;;;;;11.93;5.07;;;;;;;10.29;67.63;100879.75;5112871;28;20058;-84
2021/10/23 08:44:07;;;;;;;7.53;4.18;;;;;;;10.36;67.20;100885.63;5112949;28;20471;-84
2021/10/23 08:46:34;;;;;;;;;;;;;;;10.45;67.10;100898.47;5095248;28;20050;-84
2021/10/23 08:49:02;;;;;;;10.70;4.78;;;;;;;10.57;67.24;100899.75;5113255;28;19923;-84
2021/10/23 08:51:31;;;;;;;11.35;4.47;;;;;;;10.63;66.89;100903.94;5094818;28;20501;-84
2021/10/23 08:53:58;;;;;;;10.27;4.60;;;;;;;10.66;66.75;100907.31;5095068;28;20052;-85
2021/10/23 08:56:25;;;;;;;7.25;4.57;;;;;;;10.69;66.67;100907.19;5094777;28;20067;-84
2021/10/23 08:58:52;;;;;;;9.52;4.85;;;;;;;10.72;66.71;100915.91;5094633;28;20047;-84
2021/10/23 09:01:18;;;;;;;13.65;5.00;;;;;;;10.76;66.80;100915.72;5094421;28;20059;-85
2021/10/23 09:03:46;;;;;;;9.52;4.55;;;;;;;10.80;66.88;100914.69;5113029;28;20135;-85
2021/10/23 09:06:33;;;;;;;11.30;4.25;;;;;;;10.84;66.69;100907.50;5112832;28;20048;-85
2021/10/23 09:09:07;;;;;;;11.93;5.40;;;;;;;10.90;65.91;100912.53;5094724;28;20435;-84
2021/10/23 09:11:36;;;;;;;11.07;4.68;;;;;;;10.98;66.76;100922.75;5095009;28;20079;-85
2021/10/23 09:14:21;;;;;;;7.35;4.68;;;;;;;11.01;66.07;100920.00;5095142;28;20477;-85
2021/10/23 09:17:04;;;;;;;11.90;4.97;;;;;;;11.10;65.86;100920.56;5094753;28;20050;-85
2021/10/23 09:19:33;;;;;;;10.88;4.75;;;;;;;11.20;66.61;100928.03;5112540;28;20048;-84
2021/10/23 09:22:02;;;;;;;7.18;4.20;;;;;;;11.22;66.34;100922.72;5094676;28;20055;-85
2021/10/23 09:24:28;;;;;;;11.63;5.38;;;;;;;11.28;66.40;100925.06;5094517;28;20043;-84
2021/10/23 09:26:55;;;;;;;11.05;4.78;;;;;;;11.32;66.16;100936.34;5112584;28;20056;-84
2021/10/23 09:29:24;;;;;;;9.73;4.72;;;;;;;11.34;66.15;100945.06;5092508;28;20093;-84
2021/10/23 09:32:12;;;;;;;10.65;4.78;;;;;;;11.39;66.07;100934.31;5111172;28;20409;-85
2021/10/23 09:34:38;;;;;;;10.75;4.72;;;;;;;11.44;65.88;100948.19;5110300;28;20047;-85
2021/10/23 09:37:05;;;;;;;9.82;4.25;;;;;;;11.47;66.32;100940.13;5110326;28;20163;-84
2021/10/23 09:39:39;;;;;;;10.65;4.68;;;;;;;11.53;66.14;100953.06;5093310;28;20047;-84
2021/10/23 09:42:17;;;;;;;10.73;4.78;;;;;;;11.56;65.90;100958.19;5110607;28;20070;-84
2021/10/23 09:45:05;;;;;;;8.85;4.38;;;;;;;11.64;65.51;100959.66;5092597;28;20635;-85
2021/10/23 09:47:38;;;;;;;9.70;4.50;;;;;;;11.71;65.32;100950.56;5092570;28;20651;-84
2021/10/23 09:50:14;;;;;;;14.52;4.65;;;;;;;11.76;65.23;100959.16;5093515;28;20052;-84
2021/10/23 09:53:09;;;;;;;8.85;4.50;;;;;;;11.82;65.10;100963.31;5093940;28;20055;-85
2021/10/23 09:55:38;;;;;;;8.70;4.07;;;;;;;11.91;64.96;100975.22;5112684;28;20051;-85
2021/10/23 09:58:25;;;;;;;10.00;4.85;;;;;;;11.93;64.73;100970.75;5094418;28;20051;-84
2021/10/23 10:00:54;;;;;;;11.45;4.78;;;;;;;12.00;65.41;100972.19;5093619;28;20047;-85
2021/10/23 10:03:25;;;;;;;11.60;4.60;;;;;;;12.04;64.36;100973.78;5094137;28;20060;-84
2021/10/23 10:05:57;;;;;;;11.75;4.97;;;;;;;12.08;64.70;100978.03;5112240;28;20055;-85
2021/10/23 10:08:24;;;;;;;9.95;4.53;;;;;;;12.16;65.71;100971.56;5093957;28;20047;-84
2021/10/23 10:10:52;;;;;;;8.63;4.45;;;;;;;12.23;65.92;100973.84;5094085;28;20059;-84
2021/10/23 10:13:22;;;;;;;10.93;4.80;;;;;;;12.29;65.73;100972.72;5094275;28;20051;-84
2021/10/23 10:16:02;;;;;;;9.73;4.88;;;;;;;12.38;65.30;100972.31;5094441;28;20413;-84
2021/10/23 10:18:30;;;;;;;9.10;4.20;;;;;;;12.54;66.23;100974.28;5094422;28;20456;-85
2021/10/23 10:20:58;;;;;;;15.13;4.35;;;;;;;12.66;65.95;100972.84;5113694;28;20079;-86
2021/10/23 10:23:40;;;;;;;11.18;4.05;;;;;;;12.77;64.70;100977.63;5094470;28;20051;-84
2021/10/23 10:26:26;;;;;;;8.02;3.72;;;;;;;12.90;64.42;100967.34;5094309;28;20051;-85
2021/10/23 10:29:08;;;;;;;9.13;3.17;;;;;;;13.03;63.76;100968.47;5094085;28;20051;-85
2021/10/23 10:32:10;;;;;;;12.90;3.53;;;;;;;13.16;63.83;100968.72;5094084;28;20066;-85
2021/10/23 10:34:55;;;;;;;9.73;3.28;;;;;;;13.32;63.14;100968.00;5095369;28;20600;-86
2021/10/23 10:42:55;;;;;;;8.95;2.95;;;;;;;13.71;63.21;100974.03;5112594;28;20481;-86
2021/10/23 10:45:41;;;;;;;11.52;3.30;;;;;;;13.84;62.50;100976.94;5111966;28;20054;-85
2021/10/23 10:48:17;;;;;;;6.43;3.22;;;;;;;14.03;64.47;100976.84;5094030;28;20105;-86
2021/10/23 10:51:04;;;;;;;9.23;2.65;;;;;;;14.19;62.19;100978.66;5094597;28;20055;-85
2021/10/23 10:53:41;;;;;;;11.25;3.45;;;;;;;14.44;62.75;100975.56;5112587;28;20079;-86
2021/10/23 10:56:11;;;;;;;8.35;2.95;;;;;;;14.73;65.54;100966.97;5111679;28;20138;-85
2021/10/23 10:58:52;;;;;;;10.32;3.00;;;;;;;15.08;64.38;100956.22;5093438;28;20069;-85
2021/10/23 11:01:33;;;;;;;4.07;2.22;;;;;;;15.51;62.07;100967.94;5111600;28;20061;-85
2021/10/23 11:04:09;;;;;;;8.55;2.97;;;;;;;15.95;62.66;100960.09;5095346;28;20051;-85
2021/10/23 11:06:49;;;;;;;7.38;2.95;;;;;;;16.29;59.38;100952.72;5115035;28;20421;-86
2021/10/23 11:09:16;;;;;;;12.10;2.78;;;;;;;16.54;60.23;100952.06;5096489;28;20047;-86
2021/10/23 11:11:42;;;;;;;12.52;3.33;;;;;;;16.68;59.71;100942.34;5096592;28;20479;-86
2021/10/23 11:19:21;;;;;;;8.65;2.72;;;;;;;17.22;61.36;100954.00;5114395;28;20172;-86
2021/10/23 11:22:11;;;;;;;8.20;2.47;;;;;;;17.55;59.60;100955.38;5097332;28;20109;-86
2021/10/23 11:24:56;;;;;;;6.15;2.78;;;;;;;18.06;58.81;100956.34;5096311;28;20051;-86
2021/10/23 11:27:46;;;;;;;11.80;3.30;;;;;;;18.64;58.53;100949.69;5095412;28;20056;-86
2021/10/23 11:30:15;;;;;;;14.27;3.83;;;;;;;19.27;60.78;100956.75;5096006;28;20048;-86
2021/10/23 11:32:45;;;;;;;12.40;3.30;;;;;;;19.84;57.08;100953.41;5095510;28;20525;-87
2021/10/23 11:35:13;;;;;;;7.68;2.60;;;;;;;20.40;57.97;100949.94;5114554;28;20071;-86
2021/10/23 11:37:41;;;;;;;7.22;2.85;;;;;;;20.93;56.64;100951.09;5096137;28;20543;-85
2021/10/23 11:40:11;;;;;;;8.10;2.60;;;;;;;21.43;55.99;100955.06;5095930;28;20123;-86
2021/10/23 11:42:46;;;;;;;6.53;2.35;;;;;;;21.87;50.20;100951.41;5113980;28;20060;-86
2021/10/23 11:45:21;;;;;;;6.10;2.33;;;;;;;22.30;51.22;100948.63;5114285;28;20134;-86
2021/10/23 11:48:01;;;;;;;11.55;3.00;;;;;;;22.75;50.89;100942.88;5114172;28;20437;-86
2021/10/23 11:50:32;;;;;;;7.57;2.60;;;;;;;23.19;51.12;100938.97;5095676;28;20051;-87
2021/10/23 11:53:09;;;;;;;8.85;2.60;;;;;;;23.58;49.96;100942.63;5095753;28;20092;-87
2021/10/23 11:55:37;;;;;;;6.75;2.10;;;;;;;23.99;50.12;100947.78;5095737;28;20235;-86
2021/10/23 11:58:07;;;;;;;8.38;2.38;;;;;;;24.34;47.90;100940.88;5095707;28;20517;-86
2021/10/23 12:00:51;;;;;;;4.75;2.47;;;;;;;24.71;45.99;100934.53;5095486;28;20058;-86
2021/10/23 12:03:30;;;;;;;4.97;2.75;;;;;;;25.08;45.82;100943.53;5096067;28;20433;-86
2021/10/23 12:06:16;;;;;;;6.00;2.40;;;;;;;25.29;45.18;100946.91;5095526;28;20054;-86
2021/10/23 12:08:43;;;;;;;5.63;2.53;;;;;;;25.39;44.49;100944.97;5113372;28;20127;-86
2021/10/23 12:11:18;;;;;;;7.25;2.80;;;;;;;25.33;43.66;100941.06;5095369;28;20043;-86
2021/10/23 12:13:48;;;;;;;5.88;2.90;;;;;;;25.23;41.85;100951.09;5095125;28;20065;-86